createdAt,value
2018-05-04T00:00:22.468Z,99.90
2018-05-04T00:02:50.035Z,99.90
2018-05-04T00:05:17.551Z,99.90
2018-05-04T00:07:46.004Z,99.90
2018-05-04T00:10:13.525Z,99.90
2018-05-04T00:12:41.047Z,99.90
2018-05-04T00:15:09.358Z,99.90
2018-05-04T00:17:36.869Z,99.90
2018-05-04T00:20:05.159Z,99.90
2018-05-04T00:22:33.475Z,99.90
2018-05-04T00:25:00.979Z,99.90
2018-05-04T00:27:29.249Z,99.90
2018-05-04T00:29:56.801Z,99.90
2018-05-04T00:32:25.818Z,99.90
2018-05-04T00:34:54.091Z,99.90
2018-05-04T00:37:22.520Z,99.90
2018-05-04T00:39:50.056Z,99.90
2018-05-04T00:42:17.626Z,99.90
2018-05-04T00:44:45.175Z,99.90
2018-05-04T00:47:12.738Z,99.90
2018-05-04T00:49:40.286Z,99.90
2018-05-04T00:52:07.832Z,99.90
2018-05-04T00:54:35.449Z,99.90
2018-05-04T00:57:02.957Z,99.90
2018-05-04T00:59:30.511Z,99.90
2018-05-04T01:01:58.022Z,99.90
2018-05-04T01:04:25.543Z,99.90
2018-05-04T01:06:53.097Z,99.90
2018-05-04T01:09:20.625Z,99.90
2018-05-04T01:11:48.911Z,99.90
2018-05-04T01:14:17.226Z,99.90
2018-05-04T01:16:44.743Z,99.90
2018-05-04T01:19:13.023Z,99.90
2018-05-04T01:21:41.328Z,99.90
2018-05-04T01:24:08.849Z,99.90
2018-05-04T01:26:37.141Z,99.90
2018-05-04T01:29:04.694Z,99.90
2018-05-04T01:31:32.236Z,99.90
2018-05-04T01:34:00.506Z,99.90
2018-05-04T01:36:28.832Z,99.90
2018-05-04T01:38:56.338Z,99.90
2018-05-04T01:41:23.896Z,99.90
2018-05-04T01:43:52.227Z,99.90
2018-05-04T01:46:19.771Z,99.90
2018-05-04T01:48:47.335Z,99.90
2018-05-04T01:51:14.953Z,99.90
2018-05-04T01:53:43.248Z,99.90
2018-05-04T01:56:10.836Z,99.90
2018-05-04T01:58:38.406Z,99.90
2018-05-04T02:01:05.946Z,99.90
2018-05-04T02:03:33.471Z,99.90
2018-05-04T02:06:01.795Z,99.90
2018-05-04T02:08:29.304Z,99.90
2018-05-04T02:10:57.569Z,99.90
2018-05-04T02:13:25.128Z,99.90
2018-05-04T02:15:52.656Z,99.90
2018-05-04T02:18:20.205Z,99.90
2018-05-04T02:20:47.759Z,99.90
2018-05-04T02:23:15.280Z,99.90
2018-05-04T02:25:43.561Z,99.90
2018-05-04T02:28:11.124Z,99.90
2018-05-04T02:30:38.652Z,99.90
2018-05-04T02:33:06.988Z,99.90
2018-05-04T02:35:34.549Z,99.90
2018-05-04T02:38:02.100Z,99.90
2018-05-04T02:40:29.649Z,99.90
2018-05-04T02:42:57.196Z,99.90
2018-05-04T02:45:24.724Z,99.90
2018-05-04T02:47:53.004Z,99.90
2018-05-04T02:50:21.330Z,99.90
2018-05-04T02:52:48.878Z,99.90
2018-05-04T02:55:16.405Z,99.90
2018-05-04T02:57:44.098Z,99.90
2018-05-04T03:00:11.668Z,99.90
2018-05-04T03:02:39.219Z,99.90
2018-05-04T03:05:06.787Z,99.90
2018-05-04T03:07:34.317Z,99.90
2018-05-04T03:10:01.834Z,99.90
2018-05-04T03:12:30.145Z,99.90
2018-05-04T03:14:57.670Z,99.90
2018-05-04T03:17:25.197Z,99.90
2018-05-04T03:19:52.743Z,99.90
2018-05-04T03:22:20.280Z,99.90
2018-05-04T03:24:47.802Z,99.90
2018-05-04T03:27:15.337Z,99.90
2018-05-04T03:29:42.841Z,99.90
2018-05-04T03:32:11.183Z,99.90
2018-05-04T03:34:38.724Z,99.90
2018-05-04T03:37:06.247Z,99.90
2018-05-04T03:39:33.757Z,99.90
2018-05-04T03:42:01.387Z,99.90
2018-05-04T03:44:28.884Z,99.90
2018-05-04T03:46:56.409Z,99.90
2018-05-04T03:49:23.945Z,99.90
2018-05-04T03:51:51.471Z,99.90
2018-05-04T03:54:19.754Z,99.90
2018-05-04T03:56:48.072Z,99.90
2018-05-04T03:59:27.389Z,99.90
2018-05-04T04:02:19.580Z,99.90
2018-05-04T04:04:47.213Z,99.90
2018-05-04T04:07:14.737Z,99.90
2018-05-04T04:09:42.290Z,99.90
2018-05-04T04:12:09.805Z,99.90
2018-05-04T04:14:37.347Z,99.90
2018-05-04T04:17:04.989Z,99.90
2018-05-04T04:19:32.542Z,99.90
2018-05-04T04:22:00.060Z,99.90
2018-05-04T04:24:28.364Z,99.90
2018-05-04T04:26:55.888Z,99.90
2018-05-04T04:29:23.614Z,99.90
2018-05-04T04:31:51.267Z,99.90
2018-05-04T04:34:18.833Z,99.90
2018-05-04T04:36:46.353Z,99.90
2018-05-04T04:39:14.665Z,99.90
2018-05-04T04:41:42.181Z,99.90
2018-05-04T04:44:10.458Z,99.90
2018-05-04T04:46:38.782Z,99.90
2018-05-04T04:49:06.310Z,99.90
2018-05-04T04:51:34.425Z,99.90
2018-05-04T04:54:01.970Z,99.90
2018-05-04T04:56:29.492Z,99.90
2018-05-04T04:58:57.002Z,99.90
2018-05-04T05:01:24.548Z,99.90
2018-05-04T05:03:52.075Z,99.90
2018-05-04T05:06:19.595Z,99.90
2018-05-04T05:08:47.413Z,99.90
2018-05-04T05:11:15.791Z,99.90
2018-05-04T05:13:43.311Z,99.90
2018-05-04T05:16:11.615Z,99.90
2018-05-04T05:18:39.135Z,99.90
2018-05-04T05:21:07.444Z,99.90
2018-05-04T05:23:35.063Z,99.90
2018-05-04T05:26:02.685Z,99.90
2018-05-04T05:28:30.238Z,99.90
2018-05-04T05:30:57.781Z,99.90
2018-05-04T05:33:25.353Z,99.90
2018-05-04T05:35:52.923Z,99.90
2018-05-04T05:38:20.480Z,99.90
2018-05-04T05:40:48.006Z,99.90
2018-05-04T05:43:15.586Z,99.90
2018-05-04T05:45:43.152Z,99.90
2018-05-04T05:48:10.669Z,99.90
2018-05-04T05:50:38.957Z,99.90
2018-05-04T05:53:06.512Z,99.90
2018-05-04T05:55:34.097Z,99.90
2018-05-04T05:58:01.801Z,99.90
2018-05-04T06:00:30.124Z,99.90
2018-05-04T06:02:57.658Z,99.90
2018-05-04T06:05:25.966Z,99.90
2018-05-04T06:07:53.527Z,99.90
2018-05-04T06:10:21.052Z,99.90
2018-05-04T06:12:49.329Z,99.90
2018-05-04T06:15:17.639Z,99.90
2018-05-04T06:17:45.195Z,99.90
2018-05-04T06:20:12.717Z,99.90
2018-05-04T06:22:41.040Z,99.90
2018-05-04T06:25:08.653Z,99.90
2018-05-04T06:27:36.096Z,99.90
2018-05-04T06:30:04.422Z,99.90
2018-05-04T06:32:31.948Z,99.90
2018-05-04T06:35:00.240Z,99.90
2018-05-04T06:37:27.812Z,99.90
2018-05-04T06:39:55.331Z,99.90
2018-05-04T06:42:23.626Z,99.90
2018-05-04T06:44:51.213Z,99.90
2018-05-04T06:47:18.772Z,99.90
2018-05-04T06:49:46.331Z,99.90
2018-05-04T06:52:13.899Z,99.90
2018-05-04T06:54:41.436Z,99.90
2018-05-04T06:57:09.541Z,99.90
2018-05-04T06:59:37.390Z,99.90
2018-05-04T07:02:04.909Z,99.90
2018-05-04T07:04:33.218Z,99.90
2018-05-04T07:07:00.781Z,99.90
2018-05-04T07:09:28.324Z,99.90
2018-05-04T07:11:55.893Z,99.90
2018-05-04T07:14:23.455Z,99.90
2018-05-04T07:16:51.028Z,99.90
2018-05-04T07:19:18.551Z,99.90
2018-05-04T07:21:46.137Z,99.90
2018-05-04T07:24:13.679Z,99.90
2018-05-04T07:26:41.192Z,99.90
2018-05-04T07:29:08.798Z,99.90
2018-05-04T07:31:36.371Z,99.90
2018-05-04T07:34:03.896Z,99.90
2018-05-04T07:36:31.446Z,99.90
2018-05-04T07:38:59.734Z,99.90
2018-05-04T07:41:27.270Z,99.90
2018-05-04T07:43:55.600Z,99.90
2018-05-04T07:46:23.843Z,99.90
2018-05-04T07:48:51.363Z,99.90
2018-05-04T07:51:18.924Z,99.90
2018-05-04T07:53:46.461Z,99.90
2018-05-04T07:56:13.992Z,99.90
2018-05-04T07:58:41.555Z,99.90
2018-05-04T08:01:09.115Z,99.90
2018-05-04T08:03:36.639Z,99.90
2018-05-04T08:06:04.236Z,99.90
2018-05-04T08:08:31.767Z,99.90
2018-05-04T08:10:59.299Z,99.90
2018-05-04T08:13:28.029Z,99.90
2018-05-04T08:15:55.545Z,99.90
2018-05-04T08:18:23.826Z,99.90
2018-05-04T08:20:52.254Z,99.90
2018-05-04T08:23:19.812Z,99.90
2018-05-04T08:25:47.336Z,99.90
2018-05-04T08:28:14.900Z,99.90
2018-05-04T08:30:42.409Z,99.90
2018-05-04T08:33:09.917Z,99.90
2018-05-04T08:35:37.453Z,99.90
2018-05-04T08:38:05.866Z,99.90
2018-05-04T08:40:33.414Z,99.90
2018-05-04T08:43:01.029Z,99.90
2018-05-04T08:45:28.532Z,99.90
2018-05-04T08:47:56.109Z,99.90
2018-05-04T08:50:23.672Z,99.90
2018-05-04T08:52:51.200Z,99.90
2018-05-04T08:55:18.717Z,99.90
2018-05-04T08:57:46.338Z,99.90
2018-05-04T09:00:13.894Z,99.90
2018-05-04T09:02:41.421Z,99.90
2018-05-04T09:05:09.872Z,99.90
2018-05-04T09:07:37.394Z,99.90
2018-05-04T09:10:04.908Z,99.90
2018-05-04T09:12:33.323Z,99.90
2018-05-04T09:15:00.855Z,99.90
2018-05-04T09:17:29.140Z,99.90
2018-05-04T09:19:56.701Z,99.90
2018-05-04T09:22:24.282Z,99.90
2018-05-04T09:24:51.816Z,99.90
2018-05-04T09:27:19.368Z,99.90
2018-05-04T09:29:47.669Z,99.00
2018-05-04T09:32:15.177Z,99.00
2018-05-04T09:34:43.503Z,99.20
2018-05-04T09:37:11.121Z,99.20
2018-05-04T09:39:38.628Z,99.90
2018-05-04T09:42:06.192Z,99.70
2018-05-04T09:44:33.753Z,98.60
2018-05-04T09:47:01.260Z,98.20
2018-05-04T09:49:29.576Z,97.80
2018-05-04T09:51:57.107Z,97.80
2018-05-04T09:54:25.389Z,96.10
2018-05-04T09:56:52.965Z,96.00
2018-05-04T09:59:20.516Z,95.30
2018-05-04T10:01:48.042Z,96.40
2018-05-04T10:04:16.482Z,97.20
2018-05-04T10:06:44.010Z,97.20
2018-05-04T10:09:11.604Z,97.20
2018-05-04T10:11:39.119Z,96.80
2018-05-04T10:14:06.639Z,96.20
2018-05-04T10:16:34.165Z,95.90
2018-05-04T10:19:01.723Z,94.30
2018-05-04T10:21:29.264Z,95.60
2018-05-04T10:23:56.841Z,96.10
2018-05-04T10:26:24.396Z,96.10
2018-05-04T10:28:51.907Z,94.50
2018-05-04T10:31:20.240Z,93.60
2018-05-04T10:33:47.773Z,93.70
2018-05-04T10:36:15.288Z,93.70
2018-05-04T10:38:42.880Z,94.10
2018-05-04T10:41:10.396Z,94.20
2018-05-04T10:43:37.933Z,95.80
2018-05-04T10:46:05.454Z,95.40
2018-05-04T10:48:33.030Z,95.20
2018-05-04T10:51:00.596Z,95.00
2018-05-04T10:53:28.128Z,93.10
2018-05-04T10:55:55.834Z,92.90
2018-05-04T10:58:23.368Z,93.10
2018-05-04T11:00:50.938Z,93.30
2018-05-04T11:03:18.516Z,94.20
2018-05-04T11:05:46.190Z,92.90
2018-05-04T11:08:13.819Z,94.00
2018-05-04T11:10:41.364Z,92.10
2018-05-04T11:13:09.050Z,91.90
2018-05-04T11:15:36.570Z,92.60
2018-05-04T11:18:04.159Z,92.20
2018-05-04T11:20:31.700Z,91.90
2018-05-04T11:22:59.247Z,93.10
2018-05-04T11:25:26.870Z,92.90
2018-05-04T11:27:54.383Z,92.50
2018-05-04T11:30:22.038Z,92.50
2018-05-04T11:32:49.548Z,92.30
2018-05-04T11:35:17.092Z,93.30
2018-05-04T11:37:44.726Z,92.70
2018-05-04T11:40:12.291Z,91.80
2018-05-04T11:42:39.807Z,91.20
2018-05-04T11:45:07.334Z,90.70
2018-05-04T11:47:34.963Z,90.50
2018-05-04T11:50:02.574Z,92.60
2018-05-04T11:52:30.866Z,90.40
2018-05-04T11:54:58.445Z,90.40
2018-05-04T11:57:26.039Z,90.00
2018-05-04T11:59:53.562Z,88.90
2018-05-04T12:02:21.084Z,89.30
2018-05-04T12:04:48.792Z,88.20
2018-05-04T12:07:16.323Z,88.30
2018-05-04T12:09:43.923Z,87.10
2018-05-04T12:12:11.471Z,87.30
2018-05-04T12:14:39.022Z,87.30
2018-05-04T12:17:06.579Z,88.90
2018-05-04T12:19:34.144Z,85.30
2018-05-04T12:22:01.682Z,86.60
2018-05-04T12:24:29.214Z,85.40
2018-05-04T12:26:57.526Z,82.60
2018-05-04T12:29:25.073Z,82.50
2018-05-04T12:31:52.614Z,82.60
2018-05-04T12:34:20.192Z,79.90
2018-05-04T12:36:47.772Z,76.30
2018-05-04T12:39:15.336Z,72.70
2018-05-04T12:41:42.876Z,68.30
2018-05-04T12:44:10.450Z,67.30
2018-05-04T12:46:38.020Z,67.20
2018-05-04T12:49:05.540Z,65.30
2018-05-04T12:51:33.053Z,61.20
2018-05-04T12:54:00.603Z,63.50
2018-05-04T12:56:28.125Z,64.40
2018-05-04T12:58:55.708Z,61.80
2018-05-04T13:01:23.231Z,63.10
2018-05-04T13:03:50.816Z,63.30
2018-05-04T13:06:18.375Z,61.10
2018-05-04T13:08:45.922Z,57.60
2018-05-04T13:11:13.471Z,55.60
2018-05-04T13:13:40.986Z,54.70
2018-05-04T13:16:08.616Z,55.60
2018-05-04T13:18:36.160Z,56.00
2018-05-04T13:21:03.729Z,52.60
2018-05-04T13:23:31.299Z,53.30
2018-05-04T13:25:58.847Z,53.20
2018-05-04T13:28:26.366Z,52.80
2018-05-04T13:30:54.665Z,50.20
2018-05-04T13:33:22.261Z,50.20
2018-05-04T13:35:49.779Z,49.50
2018-05-04T13:38:17.339Z,48.70
2018-05-04T13:40:44.905Z,47.30
2018-05-04T13:43:12.441Z,47.30
2018-05-04T13:45:39.973Z,46.70
2018-05-04T13:48:08.302Z,46.20
2018-05-04T13:50:35.864Z,46.20
2018-05-04T13:53:03.397Z,47.10
2018-05-04T13:55:30.940Z,47.00
2018-05-04T13:57:59.306Z,48.10
2018-05-04T14:00:27.631Z,47.60
2018-05-04T14:02:55.144Z,47.50
2018-05-04T14:05:23.433Z,47.80
2018-05-04T14:07:50.969Z,47.70
2018-05-04T14:10:18.499Z,47.40
2018-05-04T14:12:46.173Z,46.40
2018-05-04T14:15:13.682Z,46.40
2018-05-04T14:17:41.224Z,46.20
2018-05-04T14:20:09.531Z,47.10
2018-05-04T14:22:37.058Z,47.00
2018-05-04T14:25:05.409Z,45.70
2018-05-04T14:27:32.936Z,45.70
2018-05-04T14:30:00.452Z,45.00
2018-05-04T14:32:28.760Z,45.50
2018-05-04T14:34:56.311Z,45.40
2018-05-04T14:37:23.851Z,44.40
2018-05-04T14:39:51.426Z,44.70
2018-05-04T14:42:18.953Z,44.50
2018-05-04T14:44:47.263Z,43.20
2018-05-04T14:47:14.793Z,43.10
2018-05-04T14:49:43.134Z,43.20
2018-05-04T14:52:10.763Z,43.10
2018-05-04T14:54:38.296Z,42.80
2018-05-04T14:57:05.832Z,42.20
2018-05-04T14:59:34.256Z,44.00
2018-05-04T15:02:01.918Z,43.90
2018-05-04T15:04:29.460Z,43.90
2018-05-04T15:06:57.001Z,44.20
2018-05-04T15:09:25.332Z,45.10
2018-05-04T15:11:52.961Z,45.10
2018-05-04T15:14:20.556Z,45.00
2018-05-04T15:16:48.108Z,44.40
2018-05-04T15:19:15.634Z,43.90
2018-05-04T15:21:43.162Z,44.30
2018-05-04T15:24:11.471Z,44.60
2018-05-04T15:26:39.013Z,44.50
2018-05-04T15:29:07.305Z,44.80
2018-05-04T15:31:34.895Z,44.70
2018-05-04T15:34:02.457Z,43.10
2018-05-04T15:36:30.214Z,44.20
2018-05-04T15:38:57.850Z,42.80
2018-05-04T15:41:25.362Z,43.30
2018-05-04T15:43:52.894Z,42.40
2018-05-04T15:46:20.530Z,42.60
2018-05-04T15:48:53.740Z,42.80
2018-05-04T15:51:27.730Z,42.20
2018-05-04T15:53:55.292Z,41.60
2018-05-04T15:56:22.862Z,40.60
2018-05-04T15:58:50.546Z,41.00
2018-05-04T16:01:18.108Z,41.20
2018-05-04T16:03:45.726Z,41.40
2018-05-04T16:06:13.303Z,41.30
2018-05-04T16:08:40.841Z,41.20
2018-05-04T16:11:08.365Z,40.20
2018-05-04T16:13:36.779Z,40.70
2018-05-04T16:16:05.158Z,40.60
2018-05-04T16:18:32.705Z,40.00
2018-05-04T16:21:00.265Z,39.60
2018-05-04T16:23:27.791Z,39.80
2018-05-04T16:25:56.171Z,39.70
2018-05-04T16:28:24.477Z,39.00
2018-05-04T16:30:51.984Z,39.00
2018-05-04T16:33:19.611Z,38.90
2018-05-04T16:35:47.164Z,38.90
2018-05-04T16:38:14.689Z,39.20
2018-05-04T16:40:43.008Z,39.80
2018-05-04T16:43:10.580Z,39.70
2018-05-04T16:45:38.127Z,40.40
2018-05-04T16:48:11.262Z,41.10
2018-05-04T16:50:39.607Z,41.40
2018-05-04T16:53:07.143Z,41.40
2018-05-04T16:55:34.674Z,41.10
2018-05-04T16:58:02.953Z,41.30
2018-05-04T17:00:30.480Z,41.30
2018-05-04T17:02:57.991Z,41.40
2018-05-04T17:05:25.553Z,41.80
2018-05-04T17:07:53.078Z,41.00
2018-05-04T17:10:21.395Z,42.30
2018-05-04T17:12:48.944Z,42.20
2018-05-04T17:15:16.466Z,43.80
2018-05-04T17:17:44.767Z,42.80
2018-05-04T17:20:12.344Z,43.40
2018-05-04T17:22:39.879Z,42.50
2018-05-04T17:25:07.396Z,42.70
2018-05-04T17:27:34.922Z,42.70
2018-05-04T17:30:02.443Z,42.70
2018-05-04T17:32:30.001Z,42.90
2018-05-04T17:34:58.289Z,43.00
2018-05-04T17:37:25.828Z,43.00
2018-05-04T17:39:54.118Z,43.60
2018-05-04T17:42:21.667Z,43.50
2018-05-04T17:44:49.975Z,44.10
2018-05-04T17:47:17.556Z,44.10
2018-05-04T17:49:45.080Z,43.90
2018-05-04T17:52:12.642Z,43.60
2018-05-04T17:54:40.160Z,43.90
2018-05-04T17:57:08.481Z,44.60
2018-05-04T17:59:36.018Z,44.50
2018-05-04T18:02:03.553Z,44.50
2018-05-04T18:04:31.841Z,45.60
2018-05-04T18:07:00.265Z,46.10
2018-05-04T18:09:27.795Z,46.00
2018-05-04T18:11:55.333Z,46.50
2018-05-04T18:14:23.661Z,46.60
2018-05-04T18:16:51.206Z,46.60
2018-05-04T18:19:18.726Z,47.10
2018-05-04T18:21:47.077Z,48.70
2018-05-04T18:24:14.695Z,48.50
2018-05-04T18:26:42.210Z,49.60
2018-05-04T18:29:09.827Z,50.10
2018-05-04T18:31:37.373Z,51.50
2018-05-04T18:34:04.912Z,51.40
2018-05-04T18:36:32.426Z,52.20
2018-05-04T18:38:59.970Z,52.60
2018-05-04T18:41:27.499Z,52.90
2018-05-04T18:43:55.068Z,53.00
2018-05-04T18:46:22.628Z,53.30
2018-05-04T18:48:50.180Z,54.10
2018-05-04T18:51:17.767Z,54.50
2018-05-04T18:53:45.416Z,54.60
2018-05-04T18:56:12.947Z,54.70
2018-05-04T18:58:40.495Z,55.10
2018-05-04T19:01:08.801Z,55.10
2018-05-04T19:03:36.357Z,55.00
2018-05-04T19:06:03.888Z,55.70
2018-05-04T19:08:32.224Z,56.20
2018-05-04T19:10:59.744Z,56.10
2018-05-04T19:13:27.561Z,56.40
2018-05-04T19:15:55.189Z,56.30
2018-05-04T19:18:22.747Z,56.70
2018-05-04T19:20:50.267Z,56.50
2018-05-04T19:23:17.803Z,56.30
2018-05-04T19:25:46.104Z,57.40
2018-05-04T19:28:13.685Z,57.40
2018-05-04T19:30:41.212Z,57.70
2018-05-04T19:33:09.523Z,58.30
2018-05-04T19:35:37.043Z,58.20
2018-05-04T19:38:05.382Z,58.90
2018-05-04T19:40:32.917Z,58.80
2018-05-04T19:43:00.435Z,59.20
2018-05-04T19:45:28.740Z,59.50
2018-05-04T19:47:56.313Z,59.40
2018-05-04T19:50:23.871Z,60.10
2018-05-04T19:52:51.397Z,60.00
2018-05-04T19:55:19.003Z,60.00
2018-05-04T19:57:46.545Z,60.60
2018-05-04T20:00:14.086Z,60.90
2018-05-04T20:02:41.610Z,60.80
2018-05-04T20:05:09.925Z,61.70
2018-05-04T20:07:37.448Z,61.70
2018-05-04T20:10:05.753Z,63.60
2018-05-04T20:12:33.284Z,63.50
2018-05-04T20:15:01.586Z,65.60
2018-05-04T20:17:29.119Z,65.50
2018-05-04T20:19:57.427Z,67.00
2018-05-04T20:22:24.941Z,66.90
2018-05-04T20:24:52.476Z,67.60
2018-05-04T20:27:20.002Z,68.30
2018-05-04T20:29:47.574Z,68.80
2018-05-04T20:32:15.126Z,69.20
2018-05-04T20:34:42.681Z,69.90
2018-05-04T20:37:10.240Z,70.50
2018-05-04T20:39:37.774Z,71.00
2018-05-04T20:42:06.099Z,72.30
2018-05-04T20:44:33.618Z,72.30
2018-05-04T20:47:01.153Z,72.70
2018-05-04T20:49:29.452Z,74.80
2018-05-04T20:51:56.999Z,74.80
2018-05-04T20:54:24.529Z,75.70
2018-05-04T20:56:52.130Z,77.00
2018-05-04T20:59:19.657Z,78.30
2018-05-04T21:01:47.988Z,81.40
2018-05-04T21:04:15.501Z,81.30
2018-05-04T21:06:43.819Z,83.90
2018-05-04T21:09:11.347Z,83.80
2018-05-04T21:11:38.931Z,85.40
2018-05-04T21:14:06.497Z,87.30
2018-05-04T21:16:34.043Z,88.80
2018-05-04T21:19:01.624Z,90.40
2018-05-04T21:21:29.157Z,91.10
2018-05-04T21:23:57.547Z,91.70
2018-05-04T21:26:25.073Z,92.40
2018-05-04T21:28:53.370Z,94.10
2018-05-04T21:31:20.931Z,94.10
2018-05-04T21:33:48.455Z,94.80
2018-05-04T21:36:16.776Z,96.10
2018-05-04T21:38:44.324Z,96.10
2018-05-04T21:41:11.879Z,97.00
2018-05-04T21:43:39.393Z,97.50
2018-05-04T21:46:06.950Z,98.20
2018-05-04T21:48:34.475Z,99.30
2018-05-04T21:51:02.272Z,99.90
2018-05-04T21:53:29.796Z,99.90
2018-05-04T21:55:57.343Z,99.90
2018-05-04T21:58:24.882Z,99.90
2018-05-04T22:00:52.421Z,99.90
2018-05-04T22:03:20.706Z,99.90
2018-05-04T22:05:49.031Z,99.90
2018-05-04T22:08:16.590Z,99.90
2018-05-04T22:10:44.129Z,99.90
2018-05-04T22:13:11.696Z,99.90
2018-05-04T22:15:39.252Z,99.90
2018-05-04T22:18:06.806Z,99.90
2018-05-04T22:20:34.336Z,99.90
2018-05-04T22:23:02.629Z,99.90
2018-05-04T22:25:30.166Z,99.90
2018-05-04T22:27:58.443Z,99.90
2018-05-04T22:30:26.856Z,99.90
2018-05-04T22:32:54.369Z,99.90
2018-05-04T22:35:22.690Z,99.90
2018-05-04T22:37:50.218Z,99.90
2018-05-04T22:40:17.756Z,99.90
2018-05-04T22:42:46.067Z,99.90
2018-05-04T22:45:13.583Z,99.90
2018-05-04T22:47:41.194Z,99.90
2018-05-04T22:50:08.725Z,99.90
2018-05-04T22:52:37.129Z,99.90
2018-05-04T22:55:04.651Z,99.90
2018-05-04T22:57:32.963Z,99.90
2018-05-04T23:00:00.487Z,99.90
2018-05-04T23:02:28.814Z,99.90
2018-05-04T23:04:57.076Z,99.90
2018-05-04T23:07:24.624Z,99.90
2018-05-04T23:09:52.172Z,99.90
2018-05-04T23:12:19.711Z,99.90
2018-05-04T23:14:47.985Z,99.90
2018-05-04T23:17:16.302Z,99.90
2018-05-04T23:19:43.821Z,99.90
2018-05-04T23:25:06.760Z,99.90
2018-05-04T23:27:34.591Z,99.90
2018-05-04T23:30:02.162Z,99.90
2018-05-04T23:32:29.676Z,99.90
2018-05-04T23:34:57.954Z,99.90
2018-05-04T23:37:26.262Z,99.90
2018-05-04T23:39:53.816Z,99.90
2018-05-04T23:42:21.397Z,99.90
2018-05-04T23:44:48.922Z,99.90
2018-05-04T23:47:16.500Z,99.90
2018-05-04T23:49:44.020Z,99.90
2018-05-04T23:52:12.334Z,99.90
2018-05-04T23:54:39.847Z,99.90
2018-05-04T23:57:08.137Z,99.90
2018-05-04T23:59:36.459Z,99.90
